UGKO/KIU METAR and TAF weather

Enter ICAO airport designator
Station Type Date Time Source
UGKO METAR 2021/04/17 02:30 UTC NOAA

UGKO 170230Z 29006KT 9999 SCT043 OVC100 11/10 Q1021 NOSIG


Station Type Date Time Source
UGKO Decoded METAR 2021/04/17 02:30 UTC NOAA

Station name not available
Apr 16, 2021 - 10:30 PM EDT / 2021.04.17 0230 UTC
Wind: from the WNW (290 degrees) at 7 MPH (6 KT):0
Visibility: greater than 7 mile(s):0
Sky conditions: overcast
Temperature: 51 F (11 C)
Dew Point: 50 F (10 C)
Relative Humidity: 93%
Pressure (altimeter): 30.15 in. Hg (1021 hPa)
ob: UGKO 170230Z 29006KT 9999 SCT043 OVC100 11/10 Q1021 NOSIG
cycle: 2

Station Type Date Time Source
UGKO TAF 2021/04/16 18:03 UTC NOAA

TAF UGKO 161700Z 1618/1718 25006KT 9999 SCT040 OVC100 TX19/1712Z TN10/1703Z
TEMPO 1618/1622 27016KT
TEMPO 1701/1705 SHRA BKN020CB

Example: see airport list